Terminal Aerodrome Forecast
Issued by NWS Wilmington, OH

Home | Current Version | Previous Version | Text Only | Print | Product List | Glossary On
Versions: 1 2 3 4 5 6 7 8 9 10 11 12 13 14 15 16 17 18 19 20 21
000
FTUS41 KILN 080200 AAA
TAFILN
TAF AMD
KILN 080242Z 0803/0824 26012KT 5SM -SHRA BR OVC012
      TEMPO 0803/0806 2SM -SHRA OVC008
     FM080600 VRB03KT 4SM BR VCSH OVC008
     FM081600 06006KT P6SM VCSH OVC012=

USA.gov is the U.S. government's official web portal to all federal, state and local government web resources and services.